sensor_id;sensor_type;location;lat;lon;timestamp;temperature;humidity
6865;DHT22;3471;49.678;8.388;2022-09-09T00:01:23;19.50;99.90
6865;DHT22;3471;49.678;8.388;2022-09-09T00:09:21;19.50;99.90
6865;DHT22;3471;49.678;8.388;2022-09-09T00:17:04;19.40;99.90
6865;DHT22;3471;49.678;8.388;2022-09-09T00:19:46;19.40;99.90
6865;DHT22;3471;49.678;8.388;2022-09-09T00:22:18;19.40;99.90
6865;DHT22;3471;49.678;8.388;2022-09-09T00:24:52;19.40;99.90
6865;DHT22;3471;49.678;8.388;2022-09-09T00:27:31;19.40;99.90
6865;DHT22;3471;49.678;8.388;2022-09-09T00:30:19;19.40;99.90
6865;DHT22;3471;49.678;8.388;2022-09-09T00:32:49;19.50;99.90
6865;DHT22;3471;49.678;8.388;2022-09-09T00:35:32;19.40;99.90
6865;DHT22;3471;49.678;8.388;2022-09-09T00:38:14;19.40;99.90
6865;DHT22;3471;49.678;8.388;2022-09-09T00:40:59;19.40;99.90
6865;DHT22;3471;49.678;8.388;2022-09-09T00:43:30;19.40;99.90
6865;DHT22;3471;49.678;8.388;2022-09-09T00:46:19;19.40;99.90
6865;DHT22;3471;49.678;8.388;2022-09-09T00:54:28;19.40;99.90
6865;DHT22;3471;49.678;8.388;2022-09-09T00:59:47;19.40;99.90
6865;DHT22;3471;49.678;8.388;2022-09-09T01:02:28;19.40;99.90
6865;DHT22;3471;49.678;8.388;2022-09-09T01:05:02;19.30;99.90
6865;DHT22;3471;49.678;8.388;2022-09-09T01:07:30;19.30;99.90
6865;DHT22;3471;49.678;8.388;2022-09-09T01:09:59;19.30;99.90
6865;DHT22;3471;49.678;8.388;2022-09-09T01:12:39;19.20;99.90
6865;DHT22;3471;49.678;8.388;2022-09-09T01:15:12;19.20;99.90
6865;DHT22;3471;49.678;8.388;2022-09-09T01:20:17;19.20;99.90
6865;DHT22;3471;49.678;8.388;2022-09-09T01:28:10;19.20;99.90
6865;DHT22;3471;49.678;8.388;2022-09-09T01:30:40;19.20;99.90
6865;DHT22;3471;49.678;8.388;2022-09-09T01:33:15;19.20;99.90
6865;DHT22;3471;49.678;8.388;2022-09-09T01:38:20;19.10;99.90
6865;DHT22;3471;49.678;8.388;2022-09-09T01:40:47;19.10;99.90
6865;DHT22;3471;49.678;8.388;2022-09-09T01:43:13;19.00;99.90
6865;DHT22;3471;49.678;8.388;2022-09-09T01:45:40;19.00;99.90
6865;DHT22;3471;49.678;8.388;2022-09-09T01:48:06;19.00;99.90
6865;DHT22;3471;49.678;8.388;2022-09-09T01:50:32;18.90;99.90
6865;DHT22;3471;49.678;8.388;2022-09-09T01:52:59;18.90;99.90
6865;DHT22;3471;49.678;8.388;2022-09-09T01:55:32;19.00;99.90
6865;DHT22;3471;49.678;8.388;2022-09-09T02:01:02;19.00;99.90
6865;DHT22;3471;49.678;8.388;2022-09-09T02:03:32;19.00;99.90
6865;DHT22;3471;49.678;8.388;2022-09-09T02:06:14;19.00;99.90
6865;DHT22;3471;49.678;8.388;2022-09-09T02:08:50;19.00;99.90
6865;DHT22;3471;49.678;8.388;2022-09-09T02:11:19;19.00;99.90
6865;DHT22;3471;49.678;8.388;2022-09-09T02:13:48;19.00;99.90
6865;DHT22;3471;49.678;8.388;2022-09-09T02:21:31;19.00;99.90
6865;DHT22;3471;49.678;8.388;2022-09-09T02:24:03;19.00;99.90
6865;DHT22;3471;49.678;8.388;2022-09-09T02:26:31;18.90;99.90
6865;DHT22;3471;49.678;8.388;2022-09-09T02:29:02;18.90;99.90
6865;DHT22;3471;49.678;8.388;2022-09-09T02:31:28;18.90;99.90
6865;DHT22;3471;49.678;8.388;2022-09-09T02:33:57;18.90;99.90
6865;DHT22;3471;49.678;8.388;2022-09-09T02:36:27;18.90;99.90
6865;DHT22;3471;49.678;8.388;2022-09-09T02:38:55;18.90;99.90
6865;DHT22;3471;49.678;8.388;2022-09-09T02:41:25;18.90;99.90
6865;DHT22;3471;49.678;8.388;2022-09-09T02:43:53;18.80;99.90
6865;DHT22;3471;49.678;8.388;2022-09-09T02:46:24;18.80;99.90
6865;DHT22;3471;49.678;8.388;2022-09-09T02:49:09;18.70;99.90
6865;DHT22;3471;49.678;8.388;2022-09-09T02:56:53;18.70;99.90
6865;DHT22;3471;49.678;8.388;2022-09-09T02:59:22;18.70;99.90
6865;DHT22;3471;49.678;8.388;2022-09-09T03:01:50;18.70;99.90
6865;DHT22;3471;49.678;8.388;2022-09-09T03:04:15;18.70;99.90
6865;DHT22;3471;49.678;8.388;2022-09-09T03:06:41;18.70;99.90
6865;DHT22;3471;49.678;8.388;2022-09-09T03:09:06;18.80;99.90
6865;DHT22;3471;49.678;8.388;2022-09-09T03:11:33;18.70;99.90
6865;DHT22;3471;49.678;8.388;2022-09-09T03:13:58;18.80;99.90
6865;DHT22;3471;49.678;8.388;2022-09-09T03:16:24;18.80;99.90
6865;DHT22;3471;49.678;8.388;2022-09-09T03:18:50;18.80;99.90
6865;DHT22;3471;49.678;8.388;2022-09-09T03:21:16;18.70;99.90
6865;DHT22;3471;49.678;8.388;2022-09-09T03:23:42;18.70;99.90
6865;DHT22;3471;49.678;8.388;2022-09-09T03:26:07;18.70;99.90
6865;DHT22;3471;49.678;8.388;2022-09-09T03:28:33;18.70;99.90
6865;DHT22;3471;49.678;8.388;2022-09-09T03:31:01;18.70;99.90
6865;DHT22;3471;49.678;8.388;2022-09-09T03:33:27;18.70;99.90
6865;DHT22;3471;49.678;8.388;2022-09-09T03:35:53;18.70;99.90
6865;DHT22;3471;49.678;8.388;2022-09-09T03:38:24;18.60;99.90
6865;DHT22;3471;49.678;8.388;2022-09-09T03:40:52;18.60;99.90
6865;DHT22;3471;49.678;8.388;2022-09-09T03:43:21;18.50;99.90
6865;DHT22;3471;49.678;8.388;2022-09-09T03:45:47;18.50;99.90
6865;DHT22;3471;49.678;8.388;2022-09-09T03:48:14;18.40;99.90
6865;DHT22;3471;49.678;8.388;2022-09-09T03:50:51;18.50;99.90
6865;DHT22;3471;49.678;8.388;2022-09-09T03:53:18;18.50;99.90
6865;DHT22;3471;49.678;8.388;2022-09-09T03:55:46;18.50;99.90
6865;DHT22;3471;49.678;8.388;2022-09-09T03:58:13;18.60;99.90
6865;DHT22;3471;49.678;8.388;2022-09-09T04:00:39;18.60;99.90
6865;DHT22;3471;49.678;8.388;2022-09-09T04:03:10;18.60;99.90
6865;DHT22;3471;49.678;8.388;2022-09-09T04:05:36;18.60;99.90
6865;DHT22;3471;49.678;8.388;2022-09-09T04:08:05;18.60;99.90
6865;DHT22;3471;49.678;8.388;2022-09-09T04:10:31;18.70;99.90
6865;DHT22;3471;49.678;8.388;2022-09-09T04:12:57;18.60;99.90
6865;DHT22;3471;49.678;8.388;2022-09-09T04:15:22;18.60;99.90
6865;DHT22;3471;49.678;8.388;2022-09-09T04:17:48;18.50;99.90
6865;DHT22;3471;49.678;8.388;2022-09-09T04:20:13;18.50;99.90
6865;DHT22;3471;49.678;8.388;2022-09-09T04:22:39;18.50;99.90
6865;DHT22;3471;49.678;8.388;2022-09-09T04:25:05;18.50;99.90
6865;DHT22;3471;49.678;8.388;2022-09-09T04:27:31;18.40;99.90
6865;DHT22;3471;49.678;8.388;2022-09-09T04:29:57;18.40;99.90
6865;DHT22;3471;49.678;8.388;2022-09-09T04:32:23;18.40;99.90
6865;DHT22;3471;49.678;8.388;2022-09-09T04:34:52;18.40;99.90
6865;DHT22;3471;49.678;8.388;2022-09-09T04:37:17;18.40;99.90
6865;DHT22;3471;49.678;8.388;2022-09-09T04:39:43;18.40;99.90
6865;DHT22;3471;49.678;8.388;2022-09-09T04:42:08;18.40;99.90
6865;DHT22;3471;49.678;8.388;2022-09-09T04:44:34;18.40;99.90
6865;DHT22;3471;49.678;8.388;2022-09-09T04:47:00;18.50;99.90
6865;DHT22;3471;49.678;8.388;2022-09-09T04:49:25;18.50;99.90
6865;DHT22;3471;49.678;8.388;2022-09-09T04:51:51;18.50;99.90
6865;DHT22;3471;49.678;8.388;2022-09-09T04:54:17;18.50;99.90
6865;DHT22;3471;49.678;8.388;2022-09-09T04:56:42;18.50;99.90
6865;DHT22;3471;49.678;8.388;2022-09-09T04:59:08;18.50;99.90
6865;DHT22;3471;49.678;8.388;2022-09-09T05:01:35;18.60;99.90
6865;DHT22;3471;49.678;8.388;2022-09-09T05:04:02;18.60;99.90
6865;DHT22;3471;49.678;8.388;2022-09-09T05:06:28;18.50;99.90
6865;DHT22;3471;49.678;8.388;2022-09-09T05:08:56;18.50;99.90
6865;DHT22;3471;49.678;8.388;2022-09-09T05:11:27;18.50;99.90
6865;DHT22;3471;49.678;8.388;2022-09-09T05:13:54;18.40;99.90
6865;DHT22;3471;49.678;8.388;2022-09-09T05:16:20;18.50;99.90
6865;DHT22;3471;49.678;8.388;2022-09-09T05:18:46;18.40;99.90
6865;DHT22;3471;49.678;8.388;2022-09-09T05:21:13;18.40;99.90
6865;DHT22;3471;49.678;8.388;2022-09-09T05:23:40;18.40;99.90
6865;DHT22;3471;49.678;8.388;2022-09-09T05:26:09;18.40;99.90
6865;DHT22;3471;49.678;8.388;2022-09-09T05:28:35;18.30;99.90
6865;DHT22;3471;49.678;8.388;2022-09-09T05:31:06;18.30;99.90
6865;DHT22;3471;49.678;8.388;2022-09-09T05:33:34;18.30;99.90
6865;DHT22;3471;49.678;8.388;2022-09-09T05:36:04;18.30;99.90
6865;DHT22;3471;49.678;8.388;2022-09-09T05:38:31;18.40;99.90
6865;DHT22;3471;49.678;8.388;2022-09-09T05:40:58;18.40;99.90
6865;DHT22;3471;49.678;8.388;2022-09-09T05:43:25;18.50;99.90
6865;DHT22;3471;49.678;8.388;2022-09-09T05:46:05;18.50;99.90
6865;DHT22;3471;49.678;8.388;2022-09-09T05:48:36;18.60;99.90
6865;DHT22;3471;49.678;8.388;2022-09-09T05:51:03;18.60;99.90
6865;DHT22;3471;49.678;8.388;2022-09-09T05:53:30;18.70;99.90
6865;DHT22;3471;49.678;8.388;2022-09-09T05:56:08;18.70;99.90
6865;DHT22;3471;49.678;8.388;2022-09-09T05:58:36;18.70;99.90
6865;DHT22;3471;49.678;8.388;2022-09-09T06:01:07;18.70;99.90
6865;DHT22;3471;49.678;8.388;2022-09-09T06:03:38;18.70;99.90
6865;DHT22;3471;49.678;8.388;2022-09-09T06:06:06;18.80;99.90
6865;DHT22;3471;49.678;8.388;2022-09-09T06:08:33;18.80;99.90
6865;DHT22;3471;49.678;8.388;2022-09-09T06:13:29;18.70;99.90
6865;DHT22;3471;49.678;8.388;2022-09-09T06:15:55;18.70;99.90
6865;DHT22;3471;49.678;8.388;2022-09-09T06:18:21;18.70;99.90
6865;DHT22;3471;49.678;8.388;2022-09-09T06:20:56;18.80;99.90
6865;DHT22;3471;49.678;8.388;2022-09-09T06:23:22;18.90;99.90
6865;DHT22;3471;49.678;8.388;2022-09-09T06:25:48;19.10;99.90
6865;DHT22;3471;49.678;8.388;2022-09-09T06:28:14;19.20;99.90
6865;DHT22;3471;49.678;8.388;2022-09-09T06:30:41;19.30;99.90
6865;DHT22;3471;49.678;8.388;2022-09-09T06:33:06;19.40;99.90
6865;DHT22;3471;49.678;8.388;2022-09-09T06:35:32;19.50;99.90
6865;DHT22;3471;49.678;8.388;2022-09-09T06:37:58;19.50;99.90
6865;DHT22;3471;49.678;8.388;2022-09-09T06:40:24;19.50;99.90
6865;DHT22;3471;49.678;8.388;2022-09-09T06:42:50;19.50;99.90
6865;DHT22;3471;49.678;8.388;2022-09-09T06:45:17;19.50;99.90
6865;DHT22;3471;49.678;8.388;2022-09-09T06:47:43;19.50;99.90
6865;DHT22;3471;49.678;8.388;2022-09-09T06:50:09;19.60;99.90
6865;DHT22;3471;49.678;8.388;2022-09-09T06:52:36;19.60;99.90
6865;DHT22;3471;49.678;8.388;2022-09-09T06:55:02;19.70;99.90
6865;DHT22;3471;49.678;8.388;2022-09-09T06:57:28;19.70;99.90
6865;DHT22;3471;49.678;8.388;2022-09-09T06:59:53;19.80;99.90
6865;DHT22;3471;49.678;8.388;2022-09-09T07:02:19;19.80;99.90
6865;DHT22;3471;49.678;8.388;2022-09-09T07:04:45;19.80;99.90
6865;DHT22;3471;49.678;8.388;2022-09-09T07:07:10;19.80;99.90
6865;DHT22;3471;49.678;8.388;2022-09-09T07:09:39;19.80;99.90
6865;DHT22;3471;49.678;8.388;2022-09-09T07:12:05;19.80;99.90
6865;DHT22;3471;49.678;8.388;2022-09-09T07:14:31;19.80;99.90
6865;DHT22;3471;49.678;8.388;2022-09-09T07:16:59;19.80;99.90
6865;DHT22;3471;49.678;8.388;2022-09-09T07:19:25;19.80;99.90
6865;DHT22;3471;49.678;8.388;2022-09-09T07:21:51;19.80;99.90
6865;DHT22;3471;49.678;8.388;2022-09-09T07:24:16;19.80;99.90
6865;DHT22;3471;49.678;8.388;2022-09-09T07:26:42;19.80;99.90
6865;DHT22;3471;49.678;8.388;2022-09-09T07:29:09;19.80;99.90
6865;DHT22;3471;49.678;8.388;2022-09-09T07:31:36;19.80;99.90
6865;DHT22;3471;49.678;8.388;2022-09-09T07:34:03;19.80;99.90
6865;DHT22;3471;49.678;8.388;2022-09-09T07:36:34;19.80;99.90
6865;DHT22;3471;49.678;8.388;2022-09-09T07:39:05;19.80;99.90
6865;DHT22;3471;49.678;8.388;2022-09-09T07:41:53;19.90;99.90
6865;DHT22;3471;49.678;8.388;2022-09-09T07:44:23;19.80;99.90
6865;DHT22;3471;49.678;8.388;2022-09-09T07:46:52;19.70;99.90
6865;DHT22;3471;49.678;8.388;2022-09-09T07:49:18;19.60;99.90
6865;DHT22;3471;49.678;8.388;2022-09-09T07:51:46;19.60;99.90
6865;DHT22;3471;49.678;8.388;2022-09-09T07:54:15;19.60;99.90
6865;DHT22;3471;49.678;8.388;2022-09-09T07:56:41;19.60;99.90
6865;DHT22;3471;49.678;8.388;2022-09-09T07:59:08;19.70;99.90
6865;DHT22;3471;49.678;8.388;2022-09-09T08:01:40;19.80;99.90
6865;DHT22;3471;49.678;8.388;2022-09-09T08:04:08;19.90;99.90
6865;DHT22;3471;49.678;8.388;2022-09-09T08:06:39;20.10;99.90
6865;DHT22;3471;49.678;8.388;2022-09-09T08:09:06;20.20;99.90
6865;DHT22;3471;49.678;8.388;2022-09-09T08:11:32;20.50;99.90
6865;DHT22;3471;49.678;8.388;2022-09-09T08:14:01;20.70;99.90
6865;DHT22;3471;49.678;8.388;2022-09-09T08:16:32;20.80;99.90
6865;DHT22;3471;49.678;8.388;2022-09-09T08:18:58;21.00;99.90
6865;DHT22;3471;49.678;8.388;2022-09-09T08:21:27;21.10;99.90
6865;DHT22;3471;49.678;8.388;2022-09-09T08:23:58;21.10;99.90
6865;DHT22;3471;49.678;8.388;2022-09-09T08:26:26;21.10;99.90
6865;DHT22;3471;49.678;8.388;2022-09-09T08:28:55;21.00;99.90
6865;DHT22;3471;49.678;8.388;2022-09-09T08:31:27;21.00;99.90
6865;DHT22;3471;49.678;8.388;2022-09-09T08:33:56;21.00;99.90
6865;DHT22;3471;49.678;8.388;2022-09-09T08:36:24;21.00;99.90
6865;DHT22;3471;49.678;8.388;2022-09-09T08:38:52;20.90;99.90
6865;DHT22;3471;49.678;8.388;2022-09-09T08:43:58;20.90;99.90
6865;DHT22;3471;49.678;8.388;2022-09-09T08:46:40;20.90;99.90
6865;DHT22;3471;49.678;8.388;2022-09-09T08:52:29;21.00;99.90
6865;DHT22;3471;49.678;8.388;2022-09-09T08:57:50;21.40;99.90
6865;DHT22;3471;49.678;8.388;2022-09-09T09:00:17;21.70;99.90
6865;DHT22;3471;49.678;8.388;2022-09-09T09:03:09;21.80;99.90
6865;DHT22;3471;49.678;8.388;2022-09-09T09:05:47;22.10;99.90
6865;DHT22;3471;49.678;8.388;2022-09-09T09:08:45;22.20;99.90
6865;DHT22;3471;49.678;8.388;2022-09-09T09:11:13;22.10;99.90
6865;DHT22;3471;49.678;8.388;2022-09-09T09:14:04;22.00;99.90
6865;DHT22;3471;49.678;8.388;2022-09-09T09:16:57;21.80;99.90
6865;DHT22;3471;49.678;8.388;2022-09-09T09:19:24;21.60;99.90
6865;DHT22;3471;49.678;8.388;2022-09-09T09:27:15;21.10;99.90
6865;DHT22;3471;49.678;8.388;2022-09-09T09:29:42;21.10;99.90
6865;DHT22;3471;49.678;8.388;2022-09-09T09:32:13;21.00;99.90
6865;DHT22;3471;49.678;8.388;2022-09-09T09:34:40;20.90;99.90
6865;DHT22;3471;49.678;8.388;2022-09-09T09:37:15;20.90;99.90
6865;DHT22;3471;49.678;8.388;2022-09-09T09:39:45;21.00;99.90
6865;DHT22;3471;49.678;8.388;2022-09-09T09:42:12;21.20;99.90
6865;DHT22;3471;49.678;8.388;2022-09-09T09:44:40;21.50;99.90
6865;DHT22;3471;49.678;8.388;2022-09-09T09:47:14;21.90;99.90
6865;DHT22;3471;49.678;8.388;2022-09-09T09:49:54;22.20;99.90
6865;DHT22;3471;49.678;8.388;2022-09-09T09:52:25;22.40;99.90
6865;DHT22;3471;49.678;8.388;2022-09-09T09:54:52;22.60;99.90
6865;DHT22;3471;49.678;8.388;2022-09-09T09:57:18;22.90;99.90
6865;DHT22;3471;49.678;8.388;2022-09-09T09:59:49;23.10;99.90
6865;DHT22;3471;49.678;8.388;2022-09-09T10:02:25;23.20;99.90
6865;DHT22;3471;49.678;8.388;2022-09-09T10:05:08;23.20;99.90
6865;DHT22;3471;49.678;8.388;2022-09-09T10:07:37;23.10;99.90
6865;DHT22;3471;49.678;8.388;2022-09-09T10:10:04;23.10;99.90
6865;DHT22;3471;49.678;8.388;2022-09-09T10:12:47;23.20;99.90
6865;DHT22;3471;49.678;8.388;2022-09-09T10:18:32;23.40;99.90
6865;DHT22;3471;49.678;8.388;2022-09-09T10:29:53;23.80;99.90
6865;DHT22;3471;49.678;8.388;2022-09-09T10:35:10;23.70;99.90
6865;DHT22;3471;49.678;8.388;2022-09-09T10:37:40;23.70;99.90
6865;DHT22;3471;49.678;8.388;2022-09-09T10:40:15;23.80;99.90
6865;DHT22;3471;49.678;8.388;2022-09-09T10:42:45;23.90;99.90
6865;DHT22;3471;49.678;8.388;2022-09-09T10:47:47;24.20;99.90
6865;DHT22;3471;49.678;8.388;2022-09-09T10:56:06;24.80;99.90
6865;DHT22;3471;49.678;8.388;2022-09-09T10:59:00;24.90;99.90
6865;DHT22;3471;49.678;8.388;2022-09-09T11:01:39;25.10;99.90
6865;DHT22;3471;49.678;8.388;2022-09-09T11:04:12;24.90;99.90
6865;DHT22;3471;49.678;8.388;2022-09-09T11:06:42;24.70;99.90
6865;DHT22;3471;49.678;8.388;2022-09-09T11:09:15;24.60;99.90
6865;DHT22;3471;49.678;8.388;2022-09-09T11:11:47;24.40;99.90
6865;DHT22;3471;49.678;8.388;2022-09-09T11:17:35;24.20;99.90
6865;DHT22;3471;49.678;8.388;2022-09-09T11:20:01;24.40;99.90
6865;DHT22;3471;49.678;8.388;2022-09-09T11:22:36;24.60;99.90
6865;DHT22;3471;49.678;8.388;2022-09-09T11:25:10;24.70;99.90
6865;DHT22;3471;49.678;8.388;2022-09-09T11:33:00;23.90;99.90
6865;DHT22;3471;49.678;8.388;2022-09-09T11:36:43;23.70;99.90
6865;DHT22;3471;49.678;8.388;2022-09-09T11:39:01;23.70;99.90
6865;DHT22;3471;49.678;8.388;2022-09-09T11:41:36;23.80;99.90
6865;DHT22;3471;49.678;8.388;2022-09-09T11:44:11;24.00;99.90
6865;DHT22;3471;49.678;8.388;2022-09-09T11:46:39;23.90;99.90
6865;DHT22;3471;49.678;8.388;2022-09-09T11:49:26;23.90;99.90
6865;DHT22;3471;49.678;8.388;2022-09-09T11:51:52;23.80;99.90
6865;DHT22;3471;49.678;8.388;2022-09-09T11:54:32;23.90;99.90
6865;DHT22;3471;49.678;8.388;2022-09-09T11:56:59;23.90;99.90
6865;DHT22;3471;49.678;8.388;2022-09-09T11:59:27;24.00;99.90
6865;DHT22;3471;49.678;8.388;2022-09-09T12:01:59;24.00;99.90
6865;DHT22;3471;49.678;8.388;2022-09-09T12:04:31;24.10;99.90
6865;DHT22;3471;49.678;8.388;2022-09-09T12:14:44;24.20;99.90
6865;DHT22;3471;49.678;8.388;2022-09-09T12:17:23;24.40;99.90
6865;DHT22;3471;49.678;8.388;2022-09-09T12:28:15;25.20;99.90
6865;DHT22;3471;49.678;8.388;2022-09-09T12:33:34;24.50;99.90
6865;DHT22;3471;49.678;8.388;2022-09-09T12:36:00;24.20;99.90
6865;DHT22;3471;49.678;8.388;2022-09-09T12:38:32;23.70;99.90
6865;DHT22;3471;49.678;8.388;2022-09-09T12:40:59;23.40;99.90
6865;DHT22;3471;49.678;8.388;2022-09-09T12:43:27;23.20;99.90
6865;DHT22;3471;49.678;8.388;2022-09-09T12:45:56;23.10;99.90
6865;DHT22;3471;49.678;8.388;2022-09-09T12:48:32;23.00;99.90
6865;DHT22;3471;49.678;8.388;2022-09-09T12:51:00;22.90;99.90
6865;DHT22;3471;49.678;8.388;2022-09-09T12:53:29;22.80;99.90
6865;DHT22;3471;49.678;8.388;2022-09-09T12:56:09;22.70;99.90
6865;DHT22;3471;49.678;8.388;2022-09-09T12:58:37;22.50;99.90
6865;DHT22;3471;49.678;8.388;2022-09-09T13:01:04;22.30;99.90
6865;DHT22;3471;49.678;8.388;2022-09-09T13:03:32;22.00;99.90
6865;DHT22;3471;49.678;8.388;2022-09-09T13:06:09;21.80;99.90
6865;DHT22;3471;49.678;8.388;2022-09-09T13:08:36;21.60;99.90
6865;DHT22;3471;49.678;8.388;2022-09-09T13:11:06;21.40;99.90
6865;DHT22;3471;49.678;8.388;2022-09-09T13:13:42;21.40;99.90
6865;DHT22;3471;49.678;8.388;2022-09-09T13:16:27;21.30;99.90
6865;DHT22;3471;49.678;8.388;2022-09-09T13:18:58;21.20;99.90
6865;DHT22;3471;49.678;8.388;2022-09-09T13:21:53;21.00;99.90
6865;DHT22;3471;49.678;8.388;2022-09-09T13:24:29;20.80;99.90
6865;DHT22;3471;49.678;8.388;2022-09-09T13:27:00;20.70;99.90
6865;DHT22;3471;49.678;8.388;2022-09-09T13:29:29;20.70;99.90
6865;DHT22;3471;49.678;8.388;2022-09-09T13:32:16;21.00;99.90
6865;DHT22;3471;49.678;8.388;2022-09-09T13:34:51;21.60;99.90
6865;DHT22;3471;49.678;8.388;2022-09-09T13:37:38;22.60;99.90
6865;DHT22;3471;49.678;8.388;2022-09-09T13:40:18;23.70;99.90
6865;DHT22;3471;49.678;8.388;2022-09-09T13:42:44;24.70;99.90
6865;DHT22;3471;49.678;8.388;2022-09-09T13:45:21;25.60;99.90
6865;DHT22;3471;49.678;8.388;2022-09-09T13:47:48;26.10;99.90
6865;DHT22;3471;49.678;8.388;2022-09-09T13:50:28;26.20;99.90
6865;DHT22;3471;49.678;8.388;2022-09-09T13:52:58;26.00;99.90
6865;DHT22;3471;49.678;8.388;2022-09-09T13:55:28;25.80;99.90
6865;DHT22;3471;49.678;8.388;2022-09-09T13:58:00;25.80;99.90
6865;DHT22;3471;49.678;8.388;2022-09-09T14:00:28;26.30;99.90
6865;DHT22;3471;49.678;8.388;2022-09-09T14:02:54;26.60;99.90
6865;DHT22;3471;49.678;8.388;2022-09-09T14:05:20;26.70;99.90
6865;DHT22;3471;49.678;8.388;2022-09-09T14:07:48;26.60;99.90
6865;DHT22;3471;49.678;8.388;2022-09-09T14:10:14;26.40;99.90
6865;DHT22;3471;49.678;8.388;2022-09-09T14:12:40;26.00;99.90
6865;DHT22;3471;49.678;8.388;2022-09-09T14:15:08;25.90;99.90
6865;DHT22;3471;49.678;8.388;2022-09-09T14:17:34;26.00;99.90
6865;DHT22;3471;49.678;8.388;2022-09-09T14:20:03;26.30;99.90
6865;DHT22;3471;49.678;8.388;2022-09-09T14:22:31;26.60;99.90
6865;DHT22;3471;49.678;8.388;2022-09-09T14:24:56;26.60;99.90
6865;DHT22;3471;49.678;8.388;2022-09-09T14:27:23;26.50;99.90
6865;DHT22;3471;49.678;8.388;2022-09-09T14:29:48;26.30;99.90
6865;DHT22;3471;49.678;8.388;2022-09-09T14:32:14;25.90;99.90
6865;DHT22;3471;49.678;8.388;2022-09-09T14:34:39;25.50;99.90
6865;DHT22;3471;49.678;8.388;2022-09-09T14:37:06;25.00;99.90
6865;DHT22;3471;49.678;8.388;2022-09-09T14:39:31;24.60;99.90
6865;DHT22;3471;49.678;8.388;2022-09-09T14:41:57;24.30;99.90
6865;DHT22;3471;49.678;8.388;2022-09-09T14:44:23;24.10;99.90
6865;DHT22;3471;49.678;8.388;2022-09-09T14:46:49;23.90;99.90
6865;DHT22;3471;49.678;8.388;2022-09-09T14:49:18;23.80;99.90
6865;DHT22;3471;49.678;8.388;2022-09-09T14:51:44;23.60;99.90
6865;DHT22;3471;49.678;8.388;2022-09-09T14:54:09;23.40;99.90
6865;DHT22;3471;49.678;8.388;2022-09-09T14:56:36;23.40;99.90
6865;DHT22;3471;49.678;8.388;2022-09-09T14:59:02;23.20;99.90
6865;DHT22;3471;49.678;8.388;2022-09-09T15:01:29;23.10;99.90
6865;DHT22;3471;49.678;8.388;2022-09-09T15:03:56;23.00;99.90
6865;DHT22;3471;49.678;8.388;2022-09-09T15:06:24;22.90;99.90
6865;DHT22;3471;49.678;8.388;2022-09-09T15:08:51;22.90;99.90
6865;DHT22;3471;49.678;8.388;2022-09-09T15:11:18;22.80;99.90
6865;DHT22;3471;49.678;8.388;2022-09-09T15:13:44;22.80;99.90
6865;DHT22;3471;49.678;8.388;2022-09-09T15:16:13;22.70;99.90
6865;DHT22;3471;49.678;8.388;2022-09-09T15:18:39;22.60;99.90
6865;DHT22;3471;49.678;8.388;2022-09-09T15:21:16;22.60;99.90
6865;DHT22;3471;49.678;8.388;2022-09-09T15:23:42;22.50;99.90
6865;DHT22;3471;49.678;8.388;2022-09-09T15:26:08;22.50;99.90
6865;DHT22;3471;49.678;8.388;2022-09-09T15:28:36;22.50;99.90
6865;DHT22;3471;49.678;8.388;2022-09-09T15:31:24;22.50;99.90
6865;DHT22;3471;49.678;8.388;2022-09-09T15:33:55;22.50;99.90
6865;DHT22;3471;49.678;8.388;2022-09-09T15:38:54;22.40;99.90
6865;DHT22;3471;49.678;8.388;2022-09-09T15:41:21;22.60;99.90
6865;DHT22;3471;49.678;8.388;2022-09-09T15:43:48;23.00;99.90
6865;DHT22;3471;49.678;8.388;2022-09-09T15:46:34;23.40;99.90
6865;DHT22;3471;49.678;8.388;2022-09-09T15:49:08;24.10;99.90
6865;DHT22;3471;49.678;8.388;2022-09-09T15:51:38;24.70;99.90
6865;DHT22;3471;49.678;8.388;2022-09-09T15:54:05;25.20;99.90
6865;DHT22;3471;49.678;8.388;2022-09-09T15:56:31;25.60;99.90
6865;DHT22;3471;49.678;8.388;2022-09-09T15:58:58;25.80;99.90
6865;DHT22;3471;49.678;8.388;2022-09-09T16:01:26;26.00;99.90
6865;DHT22;3471;49.678;8.388;2022-09-09T16:03:52;26.00;99.90
6865;DHT22;3471;49.678;8.388;2022-09-09T16:06:22;25.80;99.90
6865;DHT22;3471;49.678;8.388;2022-09-09T16:08:51;25.50;99.90
6865;DHT22;3471;49.678;8.388;2022-09-09T16:11:19;25.00;99.90
6865;DHT22;3471;49.678;8.388;2022-09-09T16:13:47;24.50;99.90
6865;DHT22;3471;49.678;8.388;2022-09-09T16:16:17;24.10;99.90
6865;DHT22;3471;49.678;8.388;2022-09-09T16:18:50;23.70;99.90
6865;DHT22;3471;49.678;8.388;2022-09-09T16:21:31;23.40;99.90
6865;DHT22;3471;49.678;8.388;2022-09-09T16:23:59;23.10;99.90
6865;DHT22;3471;49.678;8.388;2022-09-09T16:26:25;22.90;99.90
6865;DHT22;3471;49.678;8.388;2022-09-09T16:28:50;22.60;99.90
6865;DHT22;3471;49.678;8.388;2022-09-09T16:31:18;22.50;99.90
6865;DHT22;3471;49.678;8.388;2022-09-09T16:33:46;22.30;99.90
6865;DHT22;3471;49.678;8.388;2022-09-09T16:36:14;22.20;99.90
6865;DHT22;3471;49.678;8.388;2022-09-09T16:38:40;22.10;99.90
6865;DHT22;3471;49.678;8.388;2022-09-09T16:41:06;22.00;99.90
6865;DHT22;3471;49.678;8.388;2022-09-09T16:43:33;21.80;99.90
6865;DHT22;3471;49.678;8.388;2022-09-09T16:45:59;21.80;99.90
6865;DHT22;3471;49.678;8.388;2022-09-09T16:48:31;21.60;99.90
6865;DHT22;3471;49.678;8.388;2022-09-09T16:51:03;21.60;99.90
6865;DHT22;3471;49.678;8.388;2022-09-09T16:53:31;21.50;99.90
6865;DHT22;3471;49.678;8.388;2022-09-09T16:55:56;21.50;99.90
6865;DHT22;3471;49.678;8.388;2022-09-09T16:58:22;21.40;99.90
6865;DHT22;3471;49.678;8.388;2022-09-09T17:00:48;21.40;99.90
6865;DHT22;3471;49.678;8.388;2022-09-09T17:03:14;21.30;99.90
6865;DHT22;3471;49.678;8.388;2022-09-09T17:05:40;21.20;99.90
6865;DHT22;3471;49.678;8.388;2022-09-09T17:08:06;21.20;99.90
6865;DHT22;3471;49.678;8.388;2022-09-09T17:10:32;21.10;99.90
6865;DHT22;3471;49.678;8.388;2022-09-09T17:12:58;21.10;99.90
6865;DHT22;3471;49.678;8.388;2022-09-09T17:15:23;21.00;99.90
6865;DHT22;3471;49.678;8.388;2022-09-09T17:17:49;20.90;99.90
6865;DHT22;3471;49.678;8.388;2022-09-09T17:20:19;20.90;99.90
6865;DHT22;3471;49.678;8.388;2022-09-09T17:22:44;20.90;99.90
6865;DHT22;3471;49.678;8.388;2022-09-09T17:25:10;20.80;99.90
6865;DHT22;3471;49.678;8.388;2022-09-09T17:27:36;20.80;99.90
6865;DHT22;3471;49.678;8.388;2022-09-09T17:30:03;20.80;99.90
6865;DHT22;3471;49.678;8.388;2022-09-09T17:32:29;20.70;99.90
6865;DHT22;3471;49.678;8.388;2022-09-09T17:34:55;20.70;99.90
6865;DHT22;3471;49.678;8.388;2022-09-09T17:37:21;20.70;99.90
6865;DHT22;3471;49.678;8.388;2022-09-09T17:39:47;20.60;99.90
6865;DHT22;3471;49.678;8.388;2022-09-09T17:42:12;20.70;99.90
6865;DHT22;3471;49.678;8.388;2022-09-09T17:44:38;20.70;99.90
6865;DHT22;3471;49.678;8.388;2022-09-09T17:47:05;20.70;99.90
6865;DHT22;3471;49.678;8.388;2022-09-09T17:49:31;20.60;99.90
6865;DHT22;3471;49.678;8.388;2022-09-09T17:51:57;20.60;99.90
6865;DHT22;3471;49.678;8.388;2022-09-09T17:54:23;20.50;99.90
6865;DHT22;3471;49.678;8.388;2022-09-09T17:56:49;20.50;99.90
6865;DHT22;3471;49.678;8.388;2022-09-09T17:59:16;20.50;99.90
6865;DHT22;3471;49.678;8.388;2022-09-09T18:01:42;20.40;99.90
6865;DHT22;3471;49.678;8.388;2022-09-09T18:04:13;20.20;99.90
6865;DHT22;3471;49.678;8.388;2022-09-09T18:06:45;20.00;99.90
6865;DHT22;3471;49.678;8.388;2022-09-09T18:09:14;19.80;99.90
6865;DHT22;3471;49.678;8.388;2022-09-09T18:11:43;19.60;99.90